84.3°F
Current conditions from King Hill
Updated every 5 minutes
 
  Tuesday September 2, 2014

Station Historical Data
Daily Summary for June 7, 2011 Units:  English    Metric   Both
« Previous Day
Next Day »
Daily Weekly Monthly Yearly Custom
  High: Low: Average:
Temperature: 83.7 °F 52.1 °F 67.1 °F
Dew Point: 65.8 °F 50.5 °F 57 °F
Humidity: 96% 42% 73%
Wind Speed: 5.0mph 0.0mph 2.2mph
Wind Gust: 12.0mph - -
Wind- - WSW
Pressure: 29.92 in 29.74 in -
Precipitation: 0.00 in    
Historical Graphs
 
 
Tabular Data for June 7, 2011
Time Temperature Dew Point Pressure Wind Wind Speed Wind Gust Humidity Daily Rainfall
00:00 55.3 °F 52.1 °F 29.92 in Calm     89% 0.00 in
00:05 55.1 °F 51.9 °F 29.92 in Calm     89% 0.00 in
00:10 55.1 °F 51.9 °F 29.92 in Calm     89% 0.00 in
00:15 55.0 °F 51.8 °F 29.92 in Calm     89% 0.00 in
00:20 55.0 °F 52.1 °F 29.92 in Calm     90% 0.00 in
00:25 54.9 °F 52.0 °F 29.92 in Calm     90% 0.00 in
00:30 54.8 °F 51.9 °F 29.92 in Calm     90% 0.00 in
00:35 54.8 °F 51.9 °F 29.92 in Calm     90% 0.00 in
00:40 54.9 °F 52.3 °F 29.92 in Calm     91% 0.00 in
00:45 55.0 °F 52.4 °F 29.92 in Calm     91% 0.00 in
00:50 55.0 °F 52.4 °F 29.92 in Calm     91% 0.00 in
00:55 54.9 °F 52.6 °F 29.92 in Calm     92% 0.00 in
01:00 54.7 °F 52.4 °F 29.92 in Calm     92% 0.00 in
01:10 54.4 °F 52.1 °F 29.91 in Calm     92% 0.00 in
01:15 54.3 °F 52.0 °F 29.91 in Calm     92% 0.00 in
01:20 54.2 °F 51.9 °F 29.91 in Calm     92% 0.00 in
01:25 54.0 °F 51.7 °F 29.91 in Calm     92% 0.00 in
01:30 54.0 °F 51.7 °F 29.91 in Calm     92% 0.00 in
01:35 54.0 °F 51.7 °F 29.91 in Calm     92% 0.00 in
01:40 53.9 °F 51.6 °F 29.91 in Calm     92% 0.00 in
01:45 53.9 °F 51.6 °F 29.91 in Calm     92% 0.00 in
01:50 53.7 °F 51.4 °F 29.91 in Calm     92% 0.00 in
01:55 53.7 °F 51.7 °F 29.90 in Calm     93% 0.00 in
02:00 53.9 °F 51.9 °F 29.90 in Calm     93% 0.00 in
02:05 53.9 °F 51.9 °F 29.90 in Calm     93% 0.00 in
02:10 53.7 °F 51.7 °F 29.90 in Calm     93% 0.00 in
02:15 53.6 °F 51.6 °F 29.90 in Calm     93% 0.00 in
02:20 53.5 °F 51.5 °F 29.90 in Calm     93% 0.00 in
02:25 53.5 °F 51.5 °F 29.90 in Calm     93% 0.00 in
02:30 53.4 °F 51.4 °F 29.90 in Calm     93% 0.00 in
02:40 53.2 °F 51.2 °F 29.90 in Calm     93% 0.00 in
02:45 53.4 °F 51.7 °F 29.89 in Calm     94% 0.00 in
02:50 53.3 °F 51.3 °F 29.89 in Calm     93% 0.00 in
02:55 53.3 °F 51.3 °F 29.90 in Calm     93% 0.00 in
03:00 53.4 °F 51.7 °F 29.90 in Calm     94% 0.00 in
03:05 53.3 °F 51.3 °F 29.90 in Calm     93% 0.00 in
03:10 53.1 °F 51.1 °F 29.89 in Calm     93% 0.00 in
03:20 53.0 °F 51.3 °F 29.89 in Calm     94% 0.00 in
03:25 53.1 °F 51.4 °F 29.89 in Calm     94% 0.00 in
03:30 52.8 °F 51.1 °F 29.89 in Calm     94% 0.00 in
03:35 52.8 °F 51.1 °F 29.89 in Calm     94% 0.00 in
03:40 52.6 °F 50.9 °F 29.89 in Calm     94% 0.00 in
03:45 52.5 °F 50.5 °F 29.89 in Calm     93% 0.00 in
03:50 52.3 °F 50.6 °F 29.89 in Calm     94% 0.00 in
03:55 52.5 °F 50.8 °F 29.89 in Calm     94% 0.00 in
04:00 52.5 °F 50.8 °F 29.88 in Calm     94% 0.00 in
04:05 52.7 °F 51.0 °F 29.89 in Calm     94% 0.00 in
04:10 52.6 °F 50.9 °F 29.89 in Calm     94% 0.00 in
04:15 52.5 °F 50.8 °F 29.88 in Calm     94% 0.00 in
04:20 52.3 °F 50.6 °F 29.88 in Calm     94% 0.00 in
04:25 52.3 °F 50.6 °F 29.88 in Calm     94% 0.00 in
04:30 52.5 °F 51.1 °F 29.88 in Calm     95% 0.00 in
04:35 52.7 °F 51.3 °F 29.88 in Calm     95% 0.00 in
04:40 52.7 °F 51.3 °F 29.88 in Calm   1.0 mph 95% 0.00 in
04:45 52.7 °F 51.3 °F 29.89 in Calm   1.0 mph 95% 0.00 in
04:50 52.6 °F 51.2 °F 29.89 in Calm     95% 0.00 in
05:00 52.1 °F 50.7 °F 29.89 in Calm     95% 0.00 in
05:05 52.2 °F 50.8 °F 29.89 in Calm     95% 0.00 in
05:10 52.4 °F 51.0 °F 29.89 in Calm     95% 0.00 in
05:15 52.6 °F 51.2 °F 29.89 in WNW 1.0 mph 3.0 mph 95% 0.00 in
05:20 53.0 °F 51.6 °F 29.88 in Calm   3.0 mph 95% 0.00 in
05:25 53.5 °F 52.4 °F 29.88 in WNW 1.0 mph 3.0 mph 96% 0.00 in
05:30 53.9 °F 52.5 °F 29.88 in Calm   3.0 mph 95% 0.00 in
05:35 53.5 °F 52.1 °F 29.88 in West 1.0 mph 3.0 mph 95% 0.00 in
05:40 53.0 °F 51.3 °F 29.88 in Calm   3.0 mph 94% 0.00 in
05:45 52.8 °F 51.1 °F 29.87 in Calm   3.0 mph 94% 0.00 in
05:50 52.7 °F 51.0 °F 29.88 in Calm     94% 0.00 in
05:55 52.6 °F 50.9 °F 29.88 in Calm     94% 0.00 in
06:00 52.6 °F 51.2 °F 29.88 in Calm     95% 0.00 in
06:05 52.6 °F 51.2 °F 29.89 in Calm     95% 0.00 in
06:10 52.4 °F 50.7 °F 29.89 in Calm     94% 0.00 in
06:15 52.5 °F 51.1 °F 29.88 in Calm   2.0 mph 95% 0.00 in
06:20 52.9 °F 51.5 °F 29.88 in SW 1.0 mph 3.0 mph 95% 0.00 in
06:25 53.5 °F 52.1 °F 29.89 in Calm   3.0 mph 95% 0.00 in
06:30 53.7 °F 52.3 °F 29.89 in Calm   1.0 mph 95% 0.00 in
06:40 54.7 °F 53.3 °F 29.89 in Calm   1.0 mph 95% 0.00 in
06:45 55.2 °F 53.8 °F 29.89 in Calm   3.0 mph 95% 0.00 in
06:50 55.8 °F 54.4 °F 29.89 in SW 1.0 mph 3.0 mph 95% 0.00 in
06:55 56.5 °F 55.1 °F 29.89 in Calm   3.0 mph 95% 0.00 in
07:00 57.3 °F 55.6 °F 29.89 in Calm   4.0 mph 94% 0.00 in
07:10 59.1 °F 56.5 °F 29.89 in Calm   3.0 mph 91% 0.00 in
07:15 60.0 °F 56.4 °F 29.89 in SW 1.0 mph 3.0 mph 88% 0.00 in
07:20 60.8 °F 56.3 °F 29.89 in SW 1.0 mph 5.0 mph 85% 0.00 in
07:25 61.6 °F 56.1 °F 29.89 in SW 1.0 mph 5.0 mph 82% 0.00 in
07:30 62.3 °F 56.1 °F 29.89 in Calm   4.0 mph 80% 0.00 in
07:35 62.8 °F 56.5 °F 29.89 in Calm   2.0 mph 80% 0.00 in
07:40 63.3 °F 56.7 °F 29.89 in Calm   1.0 mph 79% 0.00 in
07:45 63.8 °F 56.5 °F 29.90 in SW 2.0 mph 5.0 mph 77% 0.00 in
07:50 64.3 °F 56.9 °F 29.89 in Calm   5.0 mph 77% 0.00 in
07:55 64.9 °F 56.8 °F 29.89 in SW 2.0 mph 7.0 mph 75% 0.00 in
08:00 65.7 °F 57.9 °F 29.90 in Calm   7.0 mph 76% 0.00 in
08:05 66.5 °F 58.0 °F 29.90 in SW 1.0 mph 7.0 mph 74% 0.00 in
08:10 66.7 °F 57.4 °F 29.90 in SW 1.0 mph 7.0 mph 72% 0.00 in
08:15 67.2 °F 57.5 °F 29.90 in SSW 1.0 mph 5.0 mph 71% 0.00 in
08:20 67.6 °F 57.5 °F 29.90 in SSW 2.0 mph 8.0 mph 70% 0.00 in
08:25 67.8 °F 58.1 °F 29.89 in SSW 2.0 mph 8.0 mph 71% 0.00 in
08:30 68.0 °F 57.5 °F 29.89 in SW 3.0 mph 9.0 mph 69% 0.00 in
08:35 68.5 °F 58.7 °F 29.89 in SW 1.0 mph 9.0 mph 71% 0.00 in
08:40 69.1 °F 58.5 °F 29.89 in SSW 2.0 mph 6.0 mph 69% 0.00 in
08:45 69.5 °F 58.5 °F 29.89 in SSW 1.0 mph 8.0 mph 68% 0.00 in
08:50 69.8 °F 58.4 °F 29.89 in SW 2.0 mph 8.0 mph 67% 0.00 in
08:55 69.8 °F 58.8 °F 29.89 in SSW 2.0 mph 8.0 mph 68% 0.00 in
09:05 70.1 °F 58.6 °F 29.89 in SW 4.0 mph 9.0 mph 67% 0.00 in
09:10 70.3 °F 59.7 °F 29.89 in SW 2.0 mph 9.0 mph 69% 0.00 in
09:15 70.7 °F 59.6 °F 29.89 in SW 2.0 mph 8.0 mph 68% 0.00 in
09:20 71.0 °F 60.7 °F 29.89 in WSW 2.0 mph 8.0 mph 70% 0.00 in
09:25 71.1 °F 60.0 °F 29.89 in Calm   10.0 mph 68% 0.00 in
09:30 71.7 °F 61.4 °F 29.88 in Calm   10.0 mph 70% 0.00 in
09:35 72.1 °F 60.1 °F 29.88 in SSW 3.0 mph 8.0 mph 66% 0.00 in
09:40 72.2 °F 58.9 °F 29.88 in SSW 5.0 mph 12.0 mph 63% 0.00 in
09:45 72.8 °F 60.4 °F 29.88 in Calm   12.0 mph 65% 0.00 in
09:50 73.2 °F 60.7 °F 29.88 in SW 2.0 mph 11.0 mph 65% 0.00 in
09:55 73.2 °F 60.7 °F 29.88 in SW 1.0 mph 11.0 mph 65% 0.00 in
10:05 73.8 °F 60.4 °F 29.87 in SSW 1.0 mph 10.0 mph 63% 0.00 in
10:10 74.2 °F 60.8 °F 29.88 in SW 2.0 mph 8.0 mph 63% 0.00 in
10:15 74.8 °F 60.5 °F 29.88 in SW 5.0 mph 9.0 mph 61% 0.00 in
10:20 74.7 °F 61.3 °F 29.88 in SW 3.0 mph 9.0 mph 63% 0.00 in
10:25 74.9 °F 62.4 °F 29.87 in SW 3.0 mph 8.0 mph 65% 0.00 in
10:35 75.8 °F 61.9 °F 29.87 in WSW 1.0 mph 7.0 mph 62% 0.00 in
10:40 76.0 °F 61.1 °F 29.87 in SW 5.0 mph 8.0 mph 60% 0.00 in
10:45 75.9 °F 61.5 °F 29.86 in SSW 2.0 mph 8.0 mph 61% 0.00 in
10:50 76.2 °F 61.8 °F 29.87 in SW 3.0 mph 9.0 mph 61% 0.00 in
10:55 76.4 °F 62.9 °F 29.87 in NW 3.0 mph 9.0 mph 63% 0.00 in
11:00 76.5 °F 62.1 °F 29.86 in SW 1.0 mph 8.0 mph 61% 0.00 in
11:10 76.7 °F 58.8 °F 29.86 in West 2.0 mph 11.0 mph 54% 0.00 in
11:15 76.6 °F 59.8 °F 29.86 in West 3.0 mph 9.0 mph 56% 0.00 in
11:20 76.5 °F 58.6 °F 29.86 in Calm   9.0 mph 54% 0.00 in
11:25 76.8 °F 59.4 °F 29.86 in SW 3.0 mph 8.0 mph 55% 0.00 in
11:30 77.1 °F 57.1 °F 29.86 in SW 2.0 mph 8.0 mph 50% 0.00 in
11:35 77.5 °F 57.4 °F 29.86 in Calm   7.0 mph 50% 0.00 in
11:40 77.8 °F 59.8 °F 29.86 in WSW 2.0 mph 6.0 mph 54% 0.00 in
11:45 78.0 °F 57.3 °F 29.86 in WNW 3.0 mph 6.0 mph 49% 0.00 in
11:50 78.3 °F 58.7 °F 29.86 in NW 4.0 mph 8.0 mph 51% 0.00 in
12:00 78.2 °F 58.6 °F 29.85 in SW 1.0 mph 7.0 mph 51% 0.00 in
12:05 78.5 °F 57.2 °F 29.85 in WSW 3.0 mph 6.0 mph 48% 0.00 in
12:10 78.7 °F 60.2 °F 29.85 in SSW 2.0 mph 7.0 mph 53% 0.00 in
12:15 79.3 °F 57.4 °F 29.85 in WSW 1.0 mph 7.0 mph 47% 0.00 in
12:20 79.0 °F 58.2 °F 29.84 in NW 3.0 mph 9.0 mph 49% 0.00 in
12:25 79.3 °F 58.5 °F 29.84 in NW 3.0 mph 9.0 mph 49% 0.00 in
12:30 79.4 °F 60.8 °F 29.84 in SSW 2.0 mph 7.0 mph 53% 0.00 in
12:35 79.8 °F 60.1 °F 29.84 in WNW 2.0 mph 7.0 mph 51% 0.00 in
12:40 80.1 °F 56.9 °F 29.83 in WNW 2.0 mph 7.0 mph 45% 0.00 in
12:45 79.9 °F 60.7 °F 29.83 in SW 2.0 mph 8.0 mph 52% 0.00 in
12:50 79.6 °F 56.4 °F 29.83 in Calm   8.0 mph 45% 0.00 in
12:55 79.7 °F 58.3 °F 29.83 in WSW 3.0 mph 7.0 mph 48% 0.00 in
13:00 79.9 °F 59.1 °F 29.83 in WNW 4.0 mph 7.0 mph 49% 0.00 in
13:05 79.8 °F 59.5 °F 29.83 in West 1.0 mph 7.0 mph 50% 0.00 in
13:10 80.0 °F 57.4 °F 29.82 in SW 3.0 mph 7.0 mph 46% 0.00 in
13:20 80.1 °F 58.1 °F 29.82 in SW 3.0 mph 8.0 mph 47% 0.00 in
13:25 80.4 °F 56.5 °F 29.82 in Calm   8.0 mph 44% 0.00 in
13:30 80.6 °F 57.9 °F 29.82 in WNW 2.0 mph 7.0 mph 46% 0.00 in
13:35 80.8 °F 57.5 °F 29.81 in Calm   5.0 mph 45% 0.00 in
13:40 81.6 °F 60.0 °F 29.81 in Calm   1.0 mph 48% 0.00 in
13:45 82.1 °F 61.1 °F 29.81 in SW 4.0 mph 8.0 mph 49% 0.00 in
13:50 81.9 °F 60.9 °F 29.81 in West 3.0 mph 8.0 mph 49% 0.00 in
13:55 81.6 °F 57.6 °F 29.81 in Calm   6.0 mph 44% 0.00 in
14:00 80.7 °F 56.8 °F 29.81 in West 3.0 mph 8.0 mph 44% 0.00 in
14:05 79.9 °F 59.6 °F 29.81 in Calm   8.0 mph 50% 0.00 in
14:10 79.6 °F 57.0 °F 29.81 in Calm   4.0 mph 46% 0.00 in
14:15 79.7 °F 56.5 °F 29.80 in Calm   1.0 mph 45% 0.00 in
14:20 80.0 °F 61.9 °F 29.80 in Calm   1.0 mph 54% 0.00 in
14:25 80.8 °F 57.5 °F 29.80 in Calm   1.0 mph 45% 0.00 in
14:30 81.4 °F 60.4 °F 29.80 in Calm   1.0 mph 49% 0.00 in
14:35 81.4 °F 61.6 °F 29.79 in Calm   1.0 mph 51% 0.00 in
14:40 81.1 °F 57.2 °F 29.79 in Calm   1.0 mph 44% 0.00 in
14:45 81.1 °F 57.8 °F 29.78 in Calm   1.0 mph 45% 0.00 in
14:50 80.8 °F 58.7 °F 29.78 in Calm   1.0 mph 47% 0.00 in
15:00 80.5 °F 61.8 °F 29.78 in Calm     53% 0.00 in
15:05 80.9 °F 60.5 °F 29.78 in Calm     50% 0.00 in
15:10 80.8 °F 57.5 °F 29.78 in Calm     45% 0.00 in
15:15 81.1 °F 56.5 °F 29.78 in Calm   3.0 mph 43% 0.00 in
15:20 81.7 °F 60.1 °F 29.77 in Calm   3.0 mph 48% 0.00 in
15:30 82.1 °F 58.1 °F 29.77 in Calm   3.0 mph 44% 0.00 in
15:40 83.0 °F 61.3 °F 29.77 in Calm   1.0 mph 48% 0.00 in
15:45 83.6 °F 62.4 °F 29.78 in Calm   1.0 mph 49% 0.00 in
15:55 83.3 °F 57.8 °F 29.77 in Calm   3.0 mph 42% 0.00 in
16:00 83.4 °F 57.9 °F 29.77 in Calm   1.0 mph 42% 0.00 in
17:05 83.2 °F 62.1 °F 29.76 in Calm   1.0 mph 49% 0.00 in
17:10 83.3 °F 59.1 °F 29.75 in Calm   4.0 mph 44% 0.00 in
17:15 83.6 °F 58.8 °F 29.75 in Calm   4.0 mph 43% 0.00 in
17:20 83.7 °F 60.8 °F 29.75 in SW 1.0 mph 3.0 mph 46% 0.00 in
17:25 83.6 °F 58.8 °F 29.75 in SW 3.0 mph 6.0 mph 43% 0.00 in
17:30 83.0 °F 59.5 °F 29.74 in Calm   6.0 mph 45% 0.00 in
17:35 82.9 °F 60.6 °F 29.75 in Calm   5.0 mph 47% 0.00 in
17:40 82.8 °F 61.1 °F 29.75 in Calm   5.0 mph 48% 0.00 in
17:45 82.7 °F 58.6 °F 29.75 in Calm   3.0 mph 44% 0.00 in
17:50 82.7 °F 58.0 °F 29.75 in Calm   3.0 mph 43% 0.00 in
17:55 82.9 °F 61.2 °F 29.75 in Calm   1.0 mph 48% 0.00 in
18:00 82.8 °F 62.3 °F 29.74 in Calm   5.0 mph 50% 0.00 in
18:05 83.0 °F 61.3 °F 29.74 in Calm   5.0 mph 48% 0.00 in
18:10 83.0 °F 58.9 °F 29.75 in SW 2.0 mph 5.0 mph 44% 0.00 in
18:15 82.6 °F 59.1 °F 29.75 in Calm   5.0 mph 45% 0.00 in
18:20 82.2 °F 59.4 °F 29.75 in Calm   1.0 mph 46% 0.00 in
18:25 82.1 °F 59.9 °F 29.75 in Calm   1.0 mph 47% 0.00 in
18:30 82.0 °F 61.6 °F 29.75 in Calm   1.0 mph 50% 0.00 in
18:35 81.9 °F 60.3 °F 29.75 in WSW 1.0 mph 5.0 mph 48% 0.00 in
18:40 81.6 °F 60.6 °F 29.75 in Calm   5.0 mph 49% 0.00 in
18:45 80.9 °F 63.8 °F 29.75 in Calm   1.0 mph 56% 0.00 in
18:50 80.0 °F 65.8 °F 29.75 in Calm   1.0 mph 62% 0.00 in
18:55 78.7 °F 65.5 °F 29.75 in Calm     64% 0.00 in
19:00 77.5 °F 65.7 °F 29.76 in Calm     67% 0.00 in
19:25 73.7 °F 62.1 °F 29.77 in Calm     67% 0.00 in
19:30 73.4 °F 62.6 °F 29.76 in Calm     69% 0.00 in
19:35 73.2 °F 62.4 °F 29.76 in Calm     69% 0.00 in
19:40 73.1 °F 62.7 °F 29.77 in Calm     70% 0.00 in
19:45 72.9 °F 62.6 °F 29.77 in Calm   1.0 mph 70% 0.00 in
19:50 72.4 °F 61.7 °F 29.77 in Calm   1.0 mph 69% 0.00 in
19:55 72.0 °F 61.3 °F 29.77 in Calm     69% 0.00 in
20:00 71.6 °F 61.3 °F 29.77 in Calm   1.0 mph 70% 0.00 in
20:05 71.3 °F 61.4 °F 29.77 in Calm   1.0 mph 71% 0.00 in
20:10 70.9 °F 61.0 °F 29.78 in Calm     71% 0.00 in
20:15 70.6 °F 62.3 °F 29.77 in Calm     75% 0.00 in
20:20 70.0 °F 61.7 °F 29.77 in Calm     75% 0.00 in
20:25 69.5 °F 61.6 °F 29.77 in Calm     76% 0.00 in
20:30 68.7 °F 60.8 °F 29.77 in Calm     76% 0.00 in
20:40 67.2 °F 60.1 °F 29.77 in Calm     78% 0.00 in
20:45 66.7 °F 60.0 °F 29.78 in Calm     79% 0.00 in
20:50 66.3 °F 60.0 °F 29.78 in Calm     80% 0.00 in
21:00 65.4 °F 59.4 °F 29.78 in Calm     81% 0.00 in
21:05 65.1 °F 59.1 °F 29.79 in Calm     81% 0.00 in
21:10 64.8 °F 59.2 °F 29.79 in Calm     82% 0.00 in
21:15 64.6 °F 59.0 °F 29.79 in Calm     82% 0.00 in
21:20 64.3 °F 59.0 °F 29.79 in Calm     83% 0.00 in
21:25 64.2 °F 58.9 °F 29.79 in Calm     83% 0.00 in
21:30 64.2 °F 58.9 °F 29.79 in Calm     83% 0.00 in
21:35 64.1 °F 58.8 °F 29.79 in Calm     83% 0.00 in
21:40 63.9 °F 59.0 °F 29.79 in Calm     84% 0.00 in
21:45 63.8 °F 58.9 °F 29.79 in Calm     84% 0.00 in
21:50 63.8 °F 59.2 °F 29.79 in Calm     85% 0.00 in
21:55 63.6 °F 59.0 °F 29.80 in Calm     85% 0.00 in
22:00 63.5 °F 59.2 °F 29.80 in Calm     86% 0.00 in
22:05 63.3 °F 59.0 °F 29.80 in Calm     86% 0.00 in
22:10 63.2 °F 58.9 °F 29.80 in Calm     86% 0.00 in
22:15 63.1 °F 59.2 °F 29.80 in Calm     87% 0.00 in
22:20 63.0 °F 59.1 °F 29.80 in Calm     87% 0.00 in
22:25 63.0 °F 59.1 °F 29.80 in Calm     87% 0.00 in
22:30 63.1 °F 59.5 °F 29.80 in Calm     88% 0.00 in
22:35 63.2 °F 59.6 °F 29.80 in Calm     88% 0.00 in
22:40 63.2 °F 59.6 °F 29.80 in Calm     88% 0.00 in
22:45 63.1 °F 59.5 °F 29.80 in Calm     88% 0.00 in
22:50 63.0 °F 59.4 °F 29.80 in Calm     88% 0.00 in
22:55 62.9 °F 59.3 °F 29.80 in Calm     88% 0.00 in
23:00 62.8 °F 58.9 °F 29.80 in Calm     87% 0.00 in
23:05 62.7 °F 58.8 °F 29.80 in Calm     87% 0.00 in
23:10 62.6 °F 58.7 °F 29.80 in Calm     87% 0.00 in
23:20 62.3 °F 58.4 °F 29.80 in Calm     87% 0.00 in
23:25 62.1 °F 58.2 °F 29.80 in Calm     87% 0.00 in
23:30 62.1 °F 58.5 °F 29.80 in Calm     88% 0.00 in
23:35 61.9 °F 58.0 °F 29.80 in Calm     87% 0.00 in
23:40 61.8 °F 58.2 °F 29.80 in Calm     88% 0.00 in
23:45 61.9 °F 58.0 °F 29.80 in Calm     87% 0.00 in
23:50 62.0 °F 58.1 °F 29.80 in Calm   1.0 mph 87% 0.00 in
23:55 62.1 °F 58.2 °F 29.80 in Calm   1.0 mph 87% 0.00 in
Westford Weather
Compliments of Weather Underground

 
 
Current Radar Loop:

Copyright © WestfordWeather.net 2007-2014. All rights reserved.